createdAt,value
2022-10-01T00:01:17.285Z,23.05
2022-10-01T00:03:44.683Z,18.67
2022-10-01T00:09:38.911Z,22.02
2022-10-01T00:12:05.768Z,17.90
2022-10-01T00:14:33.078Z,18.42
2022-10-01T00:17:00.814Z,18.70
2022-10-01T00:19:27.535Z,16.95
2022-10-01T00:21:54.119Z,18.02
2022-10-01T00:24:29.226Z,19.02
2022-10-01T00:26:55.769Z,15.35
2022-10-01T00:29:22.364Z,13.98
2022-10-01T00:31:49.322Z,16.20
2022-10-01T00:34:15.977Z,16.70
2022-10-01T00:36:42.708Z,16.60
2022-10-01T00:39:27.704Z,14.45
2022-10-01T00:42:31.573Z,17.73
2022-10-01T00:45:05.224Z,19.20
2022-10-01T00:47:34.790Z,16.15
2022-10-01T00:50:08.098Z,15.57
2022-10-01T00:52:39.883Z,15.45
2022-10-01T00:55:41.344Z,14.85
2022-10-01T00:58:24.820Z,17.92
2022-10-01T01:00:54.060Z,14.52
2022-10-01T01:03:20.724Z,14.65
2022-10-01T01:05:47.917Z,16.12
2022-10-01T01:08:15.459Z,15.48
2022-10-01T01:10:57.698Z,15.45
2022-10-01T01:14:09.158Z,16.67
2022-10-01T01:19:43.401Z,15.45
2022-10-01T01:22:13.566Z,15.73
2022-10-01T01:24:55.951Z,15.15
2022-10-01T01:27:43.306Z,16.10
2022-10-01T01:30:15.068Z,15.25
2022-10-01T01:33:12.542Z,15.93
2022-10-01T01:35:47.808Z,14.85
2022-10-01T01:38:19.337Z,16.35
2022-10-01T01:40:51.624Z,18.08
2022-10-01T01:43:24.183Z,20.08
2022-10-01T01:45:55.177Z,14.95
2022-10-01T01:48:49.538Z,16.05
2022-10-01T01:56:26.834Z,15.75
2022-10-01T01:58:57.419Z,17.08
2022-10-01T02:01:37.952Z,17.35
2022-10-01T02:04:32.216Z,15.82
2022-10-01T02:07:45.936Z,16.15
2022-10-01T02:10:24.425Z,16.70
2022-10-01T02:13:10.065Z,14.63
2022-10-01T02:15:50.340Z,15.88
2022-10-01T02:18:48.289Z,17.77
2022-10-01T02:21:52.065Z,17.73
2022-10-01T02:28:24.577Z,16.50
2022-10-01T02:30:54.643Z,18.42
2022-10-01T02:33:32.963Z,18.73
2022-10-01T02:36:04.756Z,20.27
2022-10-01T02:38:34.895Z,20.17
2022-10-01T02:41:05.090Z,19.10
2022-10-01T02:43:56.020Z,20.30
2022-10-01T02:46:44.596Z,20.02
2022-10-01T02:49:18.045Z,19.12
2022-10-01T02:51:53.758Z,21.23
2022-10-01T02:54:24.589Z,20.05
2022-10-01T03:03:10.128Z,20.08
2022-10-01T03:05:36.720Z,23.15
2022-10-01T03:08:05.625Z,21.62
2022-10-01T03:10:32.255Z,21.27
2022-10-01T03:13:01.659Z,21.92
2022-10-01T03:15:28.812Z,22.13
2022-10-01T03:18:17.550Z,20.60
2022-10-01T03:20:44.160Z,23.35
2022-10-01T03:23:10.749Z,23.40
2022-10-01T03:25:37.466Z,23.50
2022-10-01T03:28:04.117Z,20.60
2022-10-01T03:30:30.735Z,19.23
2022-10-01T03:38:43.328Z,21.15
2022-10-01T03:41:09.954Z,20.37
2022-10-01T03:43:36.694Z,19.92
2022-10-01T03:46:03.861Z,18.62
2022-10-01T03:48:33.610Z,23.52
2022-10-01T03:51:53.342Z,18.55
2022-10-01T05:56:09.703Z,20.27
2022-10-01T05:58:37.820Z,21.23
2022-10-01T06:01:05.082Z,20.08
2022-10-01T06:03:31.846Z,18.45
2022-10-01T06:06:00.937Z,18.30
2022-10-01T06:08:27.775Z,20.08
2022-10-01T06:11:00.035Z,20.27
2022-10-01T06:13:29.554Z,23.87
2022-10-01T06:16:18.992Z,20.35
2022-10-01T08:33:34.605Z,25.65
2022-10-01T08:36:10.856Z,24.65
2022-10-01T08:38:38.677Z,20.80
2022-10-01T08:41:38.004Z,24.15
2022-10-01T08:44:07.347Z,25.67
2022-10-01T08:46:36.981Z,29.42
2022-10-01T08:49:12.730Z,25.20
2022-10-01T08:52:26.354Z,23.80
2022-10-01T08:54:56.972Z,26.50
2022-10-01T08:57:33.919Z,25.75
2022-10-01T09:00:04.204Z,27.40
2022-10-01T09:02:42.021Z,27.62
2022-10-01T09:05:22.042Z,24.60
2022-10-01T09:08:25.084Z,27.67
2022-10-01T09:11:02.085Z,29.87
2022-10-01T09:14:12.564Z,27.15
2022-10-01T09:16:54.397Z,28.27
2022-10-01T09:19:46.061Z,28.15
2022-10-01T09:25:26.265Z,27.67
2022-10-01T09:28:27.822Z,26.80
2022-10-01T09:43:11.663Z,23.23
2022-10-01T09:46:12.630Z,22.87
2022-10-01T09:52:02.723Z,22.83
2022-10-01T09:54:44.759Z,23.15
2022-10-01T10:02:31.653Z,22.02
2022-10-01T10:05:07.597Z,19.83
2022-10-01T10:07:41.592Z,22.95
2022-10-01T10:10:38.363Z,22.23
2022-10-01T10:13:10.930Z,25.10
2022-10-01T10:15:58.782Z,22.15
2022-10-01T10:18:34.649Z,24.75
2022-10-01T10:21:49.399Z,22.15
2022-10-01T10:24:31.122Z,21.10
2022-10-01T10:26:59.837Z,20.10
2022-10-01T10:29:32.464Z,19.40
2022-10-01T10:32:03.166Z,18.85
2022-10-01T10:35:24.351Z,20.85
2022-10-01T10:38:34.718Z,19.67
2022-10-01T10:41:03.897Z,18.95
2022-10-01T10:43:35.125Z,21.17
2022-10-01T10:46:02.897Z,21.27
2022-10-01T10:48:39.408Z,20.88
2022-10-01T10:51:06.347Z,19.23
2022-10-01T10:53:45.136Z,19.80
2022-10-01T10:56:23.581Z,18.60
2022-10-01T10:58:54.041Z,18.83
2022-10-01T11:01:43.132Z,19.23
2022-10-01T11:04:26.604Z,22.23
2022-10-01T11:07:01.689Z,18.98
2022-10-01T11:10:04.365Z,17.50
2022-10-01T11:12:49.605Z,23.00
2022-10-01T11:15:19.175Z,19.02
2022-10-01T11:18:13.101Z,18.02
2022-10-01T11:21:00.226Z,17.92
2022-10-01T11:23:34.089Z,14.70
2022-10-01T11:26:53.414Z,16.30
2022-10-01T11:29:36.052Z,13.55
2022-10-01T11:32:19.679Z,15.35
2022-10-01T11:34:50.389Z,15.38
2022-10-01T11:37:31.993Z,13.43
2022-10-01T11:40:03.276Z,12.70
2022-10-01T11:42:35.729Z,12.40
2022-10-01T11:45:23.226Z,15.10
2022-10-01T11:48:07.566Z,13.50
2022-10-01T11:50:41.903Z,14.75
2022-10-01T11:53:15.337Z,12.88
2022-10-01T11:56:04.519Z,12.68
2022-10-01T11:58:52.805Z,14.38
2022-10-01T12:01:30.178Z,13.00
2022-10-01T12:04:04.071Z,9.30
2022-10-01T12:06:38.136Z,9.73
2022-10-01T12:09:24.609Z,9.55
2022-10-01T12:12:01.212Z,6.62
2022-10-01T12:15:06.422Z,6.68
2022-10-01T12:17:45.045Z,7.22
2022-10-01T12:20:31.842Z,6.28
2022-10-01T12:23:02.509Z,7.03
2022-10-01T12:25:58.682Z,5.37
2022-10-01T12:28:37.416Z,6.15
2022-10-01T12:31:41.974Z,5.80
2022-10-01T12:34:23.917Z,7.47
2022-10-01T12:37:10.361Z,8.35
2022-10-01T12:40:15.051Z,6.32
2022-10-01T12:42:50.581Z,6.65
2022-10-01T12:45:38.728Z,6.47
2022-10-01T12:48:34.563Z,8.25
2022-10-01T12:51:42.927Z,8.88
2022-10-01T12:54:36.610Z,7.87
2022-10-01T12:57:11.809Z,7.78
2022-10-01T12:59:41.869Z,7.40
2022-10-01T13:02:20.691Z,7.62
2022-10-01T13:05:02.202Z,7.53
2022-10-01T13:08:01.021Z,8.80
2022-10-01T13:10:45.029Z,7.20
2022-10-01T13:13:32.997Z,7.93
2022-10-01T13:16:27.451Z,9.95
2022-10-01T13:19:06.366Z,6.28
2022-10-01T13:21:53.346Z,7.00
2022-10-01T13:24:32.914Z,6.62
2022-10-01T13:27:10.030Z,7.00
2022-10-01T13:29:55.081Z,8.50
2022-10-01T13:32:31.289Z,7.07
2022-10-01T13:35:01.147Z,6.50
2022-10-01T13:37:35.000Z,6.57
2022-10-01T13:40:02.512Z,6.57
2022-10-01T13:42:37.614Z,7.97
2022-10-01T13:45:22.741Z,8.20
2022-10-01T13:47:49.571Z,8.10
2022-10-01T13:50:24.702Z,7.85
2022-10-01T13:53:03.769Z,6.95
2022-10-01T13:55:31.867Z,11.55
2022-10-01T13:58:07.009Z,10.65
2022-10-01T14:00:34.140Z,9.60
2022-10-01T14:03:36.642Z,8.32
2022-10-01T14:06:07.772Z,9.83
2022-10-01T14:08:49.425Z,7.90
2022-10-01T14:11:47.875Z,5.87
2022-10-01T14:14:47.640Z,8.50
2022-10-01T14:17:15.152Z,8.38
2022-10-01T14:19:55.464Z,10.10
2022-10-01T14:22:49.448Z,12.00
2022-10-01T14:25:25.157Z,12.75
2022-10-01T14:28:12.638Z,13.02
2022-10-01T14:30:42.072Z,12.20
2022-10-01T14:33:08.615Z,12.57
2022-10-01T14:36:07.156Z,11.43
2022-10-01T14:38:34.360Z,10.77
2022-10-01T14:41:02.039Z,14.68
2022-10-01T14:43:31.664Z,11.90
2022-10-01T14:45:59.906Z,12.18
2022-10-01T14:48:29.800Z,10.82
2022-10-01T14:51:02.074Z,12.25
2022-10-01T14:53:32.269Z,15.73
2022-10-01T14:56:06.756Z,13.27
2022-10-01T14:58:37.896Z,13.50
2022-10-01T15:01:06.065Z,11.90
2022-10-01T15:03:38.738Z,11.43
2022-10-01T15:08:49.193Z,13.88
2022-10-01T15:11:21.136Z,13.85
2022-10-01T15:13:49.987Z,12.57
2022-10-01T15:16:19.512Z,13.98
2022-10-01T15:18:59.316Z,14.50
2022-10-01T15:21:39.375Z,15.02
2022-10-01T15:24:15.280Z,14.95
2022-10-01T15:26:42.107Z,15.23
2022-10-01T15:29:16.589Z,11.40
2022-10-01T15:31:46.327Z,11.93
2022-10-01T15:34:16.768Z,11.25
2022-10-01T15:36:44.485Z,11.77
2022-10-01T15:39:31.692Z,12.45
2022-10-01T15:42:01.641Z,13.75
2022-10-01T15:44:38.763Z,11.60
2022-10-01T15:47:35.854Z,12.32
2022-10-01T15:50:11.289Z,12.80
2022-10-01T15:52:51.055Z,10.35
2022-10-01T15:55:24.666Z,9.43
2022-10-01T15:58:06.981Z,10.15
2022-10-01T16:00:59.181Z,10.33
2022-10-01T16:03:50.753Z,10.27
2022-10-01T16:06:23.664Z,10.68
2022-10-01T16:09:14.484Z,11.57
2022-10-01T16:12:04.084Z,31.73
2022-10-01T16:14:44.133Z,33.72
2022-10-01T16:17:16.932Z,21.60
2022-10-01T16:19:44.101Z,12.73
2022-10-01T16:22:19.988Z,45.78
2022-10-01T16:24:49.033Z,30.52
2022-10-01T16:27:20.848Z,52.08
2022-10-01T16:30:12.848Z,51.45
2022-10-01T16:32:39.423Z,25.73
2022-10-01T16:35:15.269Z,21.30
2022-10-01T16:37:42.013Z,26.85
2022-10-01T16:40:11.720Z,23.08
2022-10-01T16:42:42.992Z,13.88
2022-10-01T16:45:15.881Z,21.62
2022-10-01T16:50:16.395Z,16.25
2022-10-01T16:52:43.054Z,14.18
2022-10-01T16:55:23.083Z,11.45
2022-10-01T16:57:56.832Z,14.23
2022-10-01T17:00:25.918Z,12.37
2022-10-01T17:02:54.412Z,15.32
2022-10-01T17:05:33.148Z,10.57
2022-10-01T17:08:04.426Z,13.95
2022-10-01T17:10:36.403Z,10.43
2022-10-01T17:13:03.726Z,15.17
2022-10-01T17:15:31.366Z,8.68
2022-10-01T17:17:58.870Z,7.68
2022-10-01T17:20:30.930Z,7.90
2022-10-01T17:22:58.429Z,5.72
2022-10-01T17:25:32.365Z,6.10
2022-10-01T17:28:01.601Z,5.72
2022-10-01T17:30:29.521Z,3.20
2022-10-01T17:32:57.405Z,4.03
2022-10-01T17:35:24.092Z,5.80
2022-10-01T17:37:50.648Z,5.55
2022-10-01T17:40:19.497Z,6.40
2022-10-01T17:42:47.151Z,8.55
2022-10-01T17:45:14.624Z,8.27
2022-10-01T17:47:49.217Z,5.47
2022-10-01T17:50:16.593Z,7.45
2022-10-01T17:52:43.678Z,8.73
2022-10-01T17:55:12.208Z,4.95
2022-10-01T17:57:38.873Z,4.62
2022-10-01T18:00:06.513Z,8.07
2022-10-01T18:02:41.996Z,4.75
2022-10-01T18:05:12.161Z,5.28
2022-10-01T18:07:39.050Z,3.22
2022-10-01T18:10:13.723Z,3.15
2022-10-01T18:12:40.922Z,4.12
2022-10-01T18:15:08.129Z,3.97
2022-10-01T18:17:36.500Z,3.03
2022-10-01T18:20:07.807Z,3.65
2022-10-01T18:22:35.789Z,4.65
2022-10-01T18:25:03.594Z,3.20
2022-10-01T18:27:30.879Z,4.90
2022-10-01T18:29:57.462Z,3.97
2022-10-01T18:32:29.662Z,4.68
2022-10-01T18:34:59.059Z,4.55
2022-10-01T18:37:40.478Z,4.18
2022-10-01T18:40:07.329Z,3.47
2022-10-01T18:42:55.250Z,2.97
2022-10-01T18:45:31.970Z,2.30
2022-10-01T18:48:06.753Z,3.87
2022-10-01T18:50:55.107Z,3.45
2022-10-01T18:53:39.878Z,2.92
2022-10-01T18:56:31.219Z,3.62
2022-10-01T18:59:22.342Z,4.03
2022-10-01T19:02:15.353Z,4.25
2022-10-01T19:05:00.465Z,4.00
2022-10-01T19:07:54.728Z,3.78
2022-10-01T19:10:30.587Z,5.03
2022-10-01T19:13:02.831Z,5.68
2022-10-01T19:15:40.768Z,9.27
2022-10-01T19:18:13.261Z,5.03
2022-10-01T19:20:59.194Z,4.80
2022-10-01T19:23:54.971Z,4.62
2022-10-01T19:26:44.577Z,5.15
2022-10-01T19:29:40.529Z,5.20
2022-10-01T19:32:16.400Z,6.62
2022-10-01T19:35:24.418Z,6.15
2022-10-01T19:37:55.173Z,5.40
2022-10-01T19:40:31.726Z,6.65
2022-10-01T19:43:19.535Z,6.35
2022-10-01T19:46:20.312Z,5.78
2022-10-01T19:48:58.061Z,5.53
2022-10-01T19:51:38.730Z,7.05
2022-10-01T19:54:17.615Z,6.70
2022-10-01T19:56:48.633Z,6.10
2022-10-01T19:59:19.928Z,6.55
2022-10-01T20:01:54.254Z,7.15
2022-10-01T20:04:39.230Z,7.20
2022-10-01T20:07:30.596Z,6.57
2022-10-01T20:10:29.473Z,5.65
2022-10-01T20:13:14.803Z,5.85
2022-10-01T20:16:02.819Z,5.75
2022-10-01T20:18:54.605Z,5.32
2022-10-01T20:21:50.195Z,5.90
2022-10-01T20:24:37.718Z,6.40
2022-10-01T20:27:11.514Z,5.82
2022-10-01T20:29:53.041Z,5.85
2022-10-01T20:32:27.430Z,6.03
2022-10-01T20:35:22.739Z,5.00
2022-10-01T20:38:08.565Z,5.60
2022-10-01T20:40:49.525Z,5.53
2022-10-01T20:43:35.226Z,5.93
2022-10-01T20:46:13.188Z,4.55
2022-10-01T20:48:47.509Z,4.68
2022-10-01T20:51:40.674Z,4.90
2022-10-01T20:54:12.233Z,6.03
2022-10-01T20:56:49.738Z,5.07
2022-10-01T20:59:27.452Z,5.15
2022-10-01T21:02:02.442Z,6.22
2022-10-01T21:04:41.206Z,5.05
2022-10-01T21:07:30.035Z,8.02
2022-10-01T21:10:03.419Z,6.50
2022-10-01T21:12:42.058Z,6.87
2022-10-01T21:15:14.203Z,5.43
2022-10-01T21:18:05.266Z,7.60
2022-10-01T21:20:34.430Z,4.00
2022-10-01T21:23:32.998Z,6.18
2022-10-01T21:26:19.209Z,6.90
2022-10-01T21:29:07.409Z,6.03
2022-10-01T21:32:12.634Z,6.28
2022-10-01T21:35:20.836Z,4.93
2022-10-01T21:38:00.264Z,5.28
2022-10-01T21:40:45.202Z,4.70
2022-10-01T21:43:43.899Z,5.07
2022-10-01T21:46:19.440Z,5.12
2022-10-01T21:49:09.779Z,4.78
2022-10-01T21:51:39.140Z,4.70
2022-10-01T21:54:32.054Z,6.25
2022-10-01T21:57:43.283Z,5.10
2022-10-01T22:00:16.725Z,4.37
2022-10-01T22:41:52.028Z,6.07
2022-10-01T22:44:21.128Z,8.50
2022-10-01T22:52:27.172Z,8.68
2022-10-01T22:55:09.061Z,6.82
2022-10-01T22:57:46.390Z,6.32
2022-10-01T23:00:14.739Z,6.20
